Dalton, Texas
Current Conditions -  °F | °C
As of 7:35 AM on Sunday 23 Nov 2014 (Local Time) from KOSA Reporting Station
Overcast Overcast  
Wind Chill: 16°   Ceiling: 9500
Heat Index: 16°   Visibility: 7mi
Dew Point: 15°   Wind: 0mph
Humidity: 98%   Direction: NA
Pressure: 29.61"   Gusts: NA
Location:  33.2006°N, 94.6977°W
Report Text: KOSA 231335Z AUTO 00000KT 7SM SCT007 OVC095 16/15 A2961 RMK AO1 T01550152
Loading
Personal Weather Stations






























Interactive Weather Map New forecast layout! Learn more

10-Day Weather Forecast

Advertisements
Track Severe Weather on mobile